Time;durP1;ratioP1;P1;durP2;ratioP2;P2;SDS_P1;SDS_P2;PMS_P1;PMS_P2;Temp;Humidity;BMP_temperature;BMP_pressure;BME280_temperature;BME280_humidity;BME280_pressure;Samples;Min_cycle;Max_cycle;Signal;HPM_P1;HPM_P2
2023/07/21 00:00:36;;;;;;;4.60;2.83;;;;;;;;;;5054661;28;20028;-72
2023/07/21 00:03:01;;;;;;;4.38;2.92;;;;;;;;;;5053943;28;20394;-72
2023/07/21 00:05:26;;;;;;;5.97;3.40;;;;;;;;;;5054001;28;20025;-72
2023/07/21 00:07:52;;;;;;;4.82;3.13;;;;;;;;;;5037108;28;20398;-72
2023/07/21 00:10:17;;;;;;;5.40;2.88;;;;;;;;;;5054542;28;20470;-71
2023/07/21 00:12:47;;;;;;;4.32;2.75;;;;;;;;;;5037136;28;20033;-72
2023/07/21 00:15:15;;;;;;;5.05;2.50;;;;;;;;;;5054922;28;20155;-72
2023/07/21 00:17:41;;;;;;;5.15;3.33;;;;;;;;;;5053579;28;20063;-72
2023/07/21 00:20:11;;;;;;;6.53;3.10;;;;;;;;;;5053736;28;20087;-72
2023/07/21 00:22:37;;;;;;;7.85;3.88;;;;;;;;;;5054268;28;20045;-71
2023/07/21 00:25:05;;;;;;;5.43;3.03;;;;;;;;;;5053615;28;20028;-72
2023/07/21 00:27:31;;;;;;;7.30;3.10;;;;;;;;;;5053403;28;20109;-72
2023/07/21 00:29:56;;;;;;;7.50;3.63;;;;;;;;;;5053591;28;20049;-72
2023/07/21 00:32:22;;;;;;;5.53;3.00;;;;;;;;;;5052974;28;20521;-72
2023/07/21 00:34:48;;;;;;;4.90;2.80;;;;;;;;;;5053390;28;20032;-72
2023/07/21 00:37:15;;;;;;;9.10;3.15;;;;;;;;;;5053194;28;20025;-72
2023/07/21 00:39:40;;;;;;;5.50;3.00;;;;;;;;;;5053640;28;20389;-72
2023/07/21 00:42:06;;;;;;;4.65;2.90;;;;;;;;;;5054448;28;20107;-72
2023/07/21 00:44:34;;;;;;;4.10;3.08;;;;;;;;;;5052803;28;20020;-72
2023/07/21 00:47:00;;;;;;;3.33;2.17;;;;;;;;;;5053130;28;20021;-72
2023/07/21 00:49:26;;;;;;;4.07;2.35;;;;;;;;;;5053073;28;20474;-72
2023/07/21 00:51:51;;;;;;;7.20;3.00;;;;;;;;;;5054437;28;20033;-72
2023/07/21 00:54:16;;;;;;;6.97;3.42;;;;;;;;;;5053702;28;20107;-71
2023/07/21 00:56:42;;;;;;;7.10;3.78;;;;;;;;;;5053783;28;20033;-72
2023/07/21 00:59:07;;;;;;;4.07;2.92;;;;;;;;;;5036220;28;20032;-72
2023/07/21 01:01:33;;;;;;;7.30;3.42;;;;;;;;;;5052905;28;20021;-72
2023/07/21 01:03:58;;;;;;;7.88;3.33;;;;;;;;;;5052846;28;20067;-72
2023/07/21 01:06:27;;;;;;;5.40;2.75;;;;;;;;;;5051957;28;20028;-71
2023/07/21 01:08:56;;;;;;;6.10;3.05;;;;;;;;;;5036393;28;20017;-72
2023/07/21 01:11:21;;;;;;;7.78;4.35;;;;;;;;;;5052703;28;20071;-72
2023/07/21 01:13:47;;;;;;;4.47;3.08;;;;;;;;;;5035989;28;20024;-72
2023/07/21 01:16:13;;;;;;;5.32;3.35;;;;;;;;;;5052436;28;20078;-72
2023/07/21 01:18:39;;;;;;;8.35;3.97;;;;;;;;;;5052090;28;20471;-72
2023/07/21 01:21:05;;;;;;;6.68;4.10;;;;;;;;;;5053018;28;20025;-72
2023/07/21 01:23:44;;;;;;;5.82;3.45;;;;;;;;;;5052465;28;20040;-72
2023/07/21 01:26:48;;;;;;;6.30;3.08;;;;;;;;;;5053414;28;20025;-71
2023/07/21 01:29:15;;;;;;;5.53;3.88;;;;;;;;;;5053389;28;20081;-72
2023/07/21 01:31:41;;;;;;;9.52;3.70;;;;;;;;;;5052391;28;20044;-72
2023/07/21 01:34:09;;;;;;;5.10;3.47;;;;;;;;;;5052288;28;20024;-72
2023/07/21 01:36:36;;;;;;;6.72;3.83;;;;;;;;;;5053435;28;20379;-72
2023/07/21 01:39:03;;;;;;;6.38;3.05;;;;;;;;;;5051660;28;20047;-71
2023/07/21 01:41:29;;;;;;;5.68;4.40;;;;;;;;;;5052187;28;20032;-72
2023/07/21 01:43:55;;;;;;;6.60;3.95;;;;;;;;;;5052309;28;20025;-72
2023/07/21 01:46:21;;;;;;;6.35;3.20;;;;;;;;;;5052317;28;20028;-72
2023/07/21 01:48:47;;;;;;;6.47;3.75;;;;;;;;;;5052673;28;20032;-71
2023/07/21 01:51:15;;;;;;;8.93;3.83;;;;;;;;;;5053246;28;20029;-71
2023/07/21 01:53:41;;;;;;;14.13;4.38;;;;;;;;;;5051999;28;20024;-70
2023/07/21 01:56:09;;;;;;;7.20;3.50;;;;;;;;;;5051906;28;20024;-69
2023/07/21 01:58:37;;;;;;;6.45;3.65;;;;;;;;;;5051989;28;20021;-69
2023/07/21 02:01:03;;;;;;;7.15;3.67;;;;;;;;;;5051890;28;20100;-70
2023/07/21 02:03:29;;;;;;;7.13;3.28;;;;;;;;;;5052599;28;20032;-70
2023/07/21 02:05:54;;;;;;;5.25;3.05;;;;;;;;;;5053805;28;20033;-69
2023/07/21 02:08:21;;;;;;;8.23;3.55;;;;;;;;;;5065659;28;20017;-70
2023/07/21 02:10:47;;;;;;;5.95;3.63;;;;;;;;;;5072304;28;20427;-70
2023/07/21 02:13:14;;;;;;;9.00;3.72;;;;;;;;;;5062622;28;20108;-70
2023/07/21 02:15:40;;;;;;;8.10;3.45;;;;;;;;;;5061909;28;20025;-70
2023/07/21 02:18:05;;;;;;;6.20;3.47;;;;;;;;;;5138299;22;20553;-69
2023/07/21 02:20:30;;;;;;;6.03;3.70;;;;;;;;;;5076042;28;20151;-69
2023/07/21 02:22:56;;;;;;;6.50;3.50;;;;;;;;;;5077025;28;20162;-69
2023/07/21 02:25:21;;;;;;;6.32;3.30;;;;;;;;;;5077079;28;20021;-69
2023/07/21 02:27:47;;;;;;;5.63;3.40;;;;;;;;;;5076788;28;20366;-69
2023/07/21 02:30:12;;;;;;;5.43;2.97;;;;;;;;;;5076926;28;20081;-69
2023/07/21 02:32:37;;;;;;;6.55;2.97;;;;;;;;;;5076507;28;20032;-69
2023/07/21 02:35:05;;;;;;;6.47;3.03;;;;;;;;;;5076838;28;20039;-69
2023/07/21 02:37:30;;;;;;;5.30;2.80;;;;;;;;;;5076923;28;20050;-69
2023/07/21 02:39:55;;;;;;;8.25;2.78;;;;;;;;;;5076850;28;20107;-69
2023/07/21 02:42:21;;;;;;;5.13;2.90;;;;;;;;;;5076731;28;20024;-69
2023/07/21 02:44:46;;;;;;;3.97;2.25;;;;;;;;;;5076626;28;20020;-69
2023/07/21 02:47:14;;;;;;;5.57;2.58;;;;;;;;;;5075973;28;20111;-69
2023/07/21 02:49:40;;;;;;;4.00;2.60;;;;;;;;;;5075277;28;20028;-69
2023/07/21 02:52:05;;;;;;;4.85;2.42;;;;;;;;;;5076591;28;20027;-69
2023/07/21 02:54:31;;;;;;;3.85;2.33;;;;;;;;;;5076406;28;20081;-69
2023/07/21 02:56:56;;;;;;;3.42;2.03;;;;;;;;;;5076985;28;20029;-69
2023/07/21 02:59:24;;;;;;;3.35;2.28;;;;;;;;;;5075431;28;20020;-69
2023/07/21 03:01:54;;;;;;;3.20;2.08;;;;;;;;;;5076631;28;20385;-69
2023/07/21 03:04:26;;;;;;;3.17;2.25;;;;;;;;;;5076476;28;20110;-69
2023/07/21 03:06:52;;;;;;;5.50;2.10;;;;;;;;;;5075642;28;20024;-69
2023/07/21 03:09:17;;;;;;;4.10;1.92;;;;;;;;;;5076117;28;20021;-69
2023/07/21 03:11:43;;;;;;;3.65;2.17;;;;;;;;;;5076119;28;20488;-69
2023/07/21 03:14:09;;;;;;;2.90;2.35;;;;;;;;;;5074957;28;20035;-69
2023/07/21 03:16:35;;;;;;;2.80;1.83;;;;;;;;;;5076077;28;20025;-69
2023/07/21 03:19:00;;;;;;;4.68;2.10;;;;;;;;;;5074710;28;20024;-69
2023/07/21 03:21:26;;;;;;;2.72;1.98;;;;;;;;;;5075438;28;20016;-69
2023/07/21 03:23:51;;;;;;;3.58;2.13;;;;;;;;;;5075987;28;20439;-69
2023/07/21 03:26:16;;;;;;;4.18;1.90;;;;;;;;;;5075751;28;20027;-69
2023/07/21 03:28:42;;;;;;;6.10;2.72;;;;;;;;;;5075699;28;20086;-69
2023/07/21 03:31:09;;;;;;;6.07;2.47;;;;;;;;;;5075191;28;20020;-69
2023/07/21 03:33:34;;;;;;;3.92;2.20;;;;;;;;;;5075288;28;20028;-69
2023/07/21 03:36:00;;;;;;;2.75;1.98;;;;;;;;;;5075617;28;20452;-69
2023/07/21 03:38:27;;;;;;;2.22;1.58;;;;;;;;;;5075569;28;20539;-69
2023/07/21 03:41:06;;;;;;;2.60;1.83;;;;;;;;;;5075656;28;20027;-68
2023/07/21 03:43:33;;;;;;;2.67;1.80;;;;;;;;;;5074534;28;20359;-69
2023/07/21 03:45:59;;;;;;;2.70;1.73;;;;;;;;;;5074133;28;20127;-69
2023/07/21 03:48:28;;;;;;;2.47;1.92;;;;;;;;;;5074197;28;20077;-69
2023/07/21 03:51:00;;;;;;;4.03;2.05;;;;;;;;;;5074582;28;20378;-69
2023/07/21 03:53:26;;;;;;;2.70;1.85;;;;;;;;;;5074513;28;20418;-69
2023/07/21 03:55:52;;;;;;;2.30;1.88;;;;;;;;;;5073663;28;20032;-69
2023/07/21 03:58:17;;;;;;;3.42;2.00;;;;;;;;;;5074070;28;20159;-69
2023/07/21 04:00:43;;;;;;;4.72;2.25;;;;;;;;;;5075571;28;20385;-69
2023/07/21 04:03:08;;;;;;;3.13;1.83;;;;;;;;;;5075234;28;20035;-69
2023/07/21 04:05:34;;;;;;;3.53;2.50;;;;;;;;;;5075236;28;20032;-69
2023/07/21 04:07:59;;;;;;;4.93;2.33;;;;;;;;;;5074955;28;20029;-69
2023/07/21 04:10:24;;;;;;;3.30;2.40;;;;;;;;;;5074791;28;20028;-69
2023/07/21 04:12:50;;;;;;;4.05;2.40;;;;;;;;;;5074932;28;20077;-69
2023/07/21 04:15:15;;;;;;;4.82;2.10;;;;;;;;;;5074895;28;20035;-69
2023/07/21 04:17:40;;;;;;;3.67;2.47;;;;;;;;;;5074616;28;20111;-69
2023/07/21 04:20:09;;;;;;;3.92;2.42;;;;;;;;;;5074933;28;20024;-69
2023/07/21 04:22:35;;;;;;;5.47;2.40;;;;;;;;;;5074617;28;20036;-69
2023/07/21 04:25:00;;;;;;;4.75;2.47;;;;;;;;;;5073582;28;20396;-69
2023/07/21 04:27:28;;;;;;;3.40;2.65;;;;;;;;;;5074989;28;20032;-69
2023/07/21 04:29:54;;;;;;;4.60;2.50;;;;;;;;;;5074500;28;20025;-69
2023/07/21 04:32:19;;;;;;;4.38;2.45;;;;;;;;;;5074516;28;20115;-69
2023/07/21 04:34:44;;;;;;;3.95;2.58;;;;;;;;;;5074107;28;20029;-69
2023/07/21 04:37:10;;;;;;;3.00;2.03;;;;;;;;;;5074750;28;20461;-69
2023/07/21 04:39:35;;;;;;;3.03;2.05;;;;;;;;;;5072884;28;20063;-69
2023/07/21 04:42:01;;;;;;;2.72;2.03;;;;;;;;;;5073113;28;20016;-69
2023/07/21 04:44:26;;;;;;;5.20;2.30;;;;;;;;;;5074303;28;20159;-69
2023/07/21 04:46:51;;;;;;;3.10;2.13;;;;;;;;;;5074235;28;20488;-69
2023/07/21 04:49:17;;;;;;;3.30;2.20;;;;;;;;;;5072769;28;20074;-69
2023/07/21 04:51:42;;;;;;;5.00;2.40;;;;;;;;;;5074342;28;20040;-69
2023/07/21 04:54:07;;;;;;;3.58;2.00;;;;;;;;;;5073659;28;20032;-69
2023/07/21 04:56:33;;;;;;;3.67;2.22;;;;;;;;;;5073683;28;20027;-69
2023/07/21 04:58:59;;;;;;;3.22;2.30;;;;;;;;;;5074014;28;20017;-69
2023/07/21 05:01:24;;;;;;;3.38;2.17;;;;;;;;;;5074219;28;20028;-69
2023/07/21 05:03:49;;;;;;;8.20;2.78;;;;;;;;;;5073435;28;20043;-69
2023/07/21 05:06:15;;;;;;;2.80;1.98;;;;;;;;;;5074392;28;20079;-69
2023/07/21 05:08:40;;;;;;;4.65;2.00;;;;;;;;;;5073597;28;20025;-69
2023/07/21 05:11:09;;;;;;;2.45;1.98;;;;;;;;;;5073960;28;20024;-69
2023/07/21 05:13:34;;;;;;;3.92;2.08;;;;;;;;;;5073287;28;20031;-70
2023/07/21 05:16:00;;;;;;;4.22;1.90;;;;;;;;;;5073592;28;20025;-70
2023/07/21 05:18:26;;;;;;;4.43;2.22;;;;;;;;;;5073297;28;20409;-69
2023/07/21 05:20:51;;;;;;;3.33;2.15;;;;;;;;;;5073620;28;20016;-69
2023/07/21 05:23:17;;;;;;;2.80;1.80;;;;;;;;;;5073519;28;20024;-69
2023/07/21 05:25:42;;;;;;;3.00;2.03;;;;;;;;;;5073580;28;20032;-70
2023/07/21 05:28:08;;;;;;;2.83;2.25;;;;;;;;;;5072632;28;20122;-69
2023/07/21 05:30:34;;;;;;;5.07;2.42;;;;;;;;;;5073858;28;20053;-69
2023/07/21 05:33:00;;;;;;;3.75;1.83;;;;;;;;;;5073448;28;20031;-69
2023/07/21 05:35:27;;;;;;;3.95;2.30;;;;;;;;;;5072251;28;20367;-69
2023/07/21 05:37:52;;;;;;;3.50;1.80;;;;;;;;;;5073185;28;20389;-69
2023/07/21 05:40:18;;;;;;;4.10;2.03;;;;;;;;;;5072862;28;20027;-69
2023/07/21 05:42:46;;;;;;;3.80;2.40;;;;;;;;;;5071599;28;20021;-69
2023/07/21 05:45:11;;;;;;;2.95;2.00;;;;;;;;;;5072291;28;20044;-69
2023/07/21 05:47:37;;;;;;;7.10;2.83;;;;;;;;;;5072969;28;20489;-69
2023/07/21 05:50:02;;;;;;;4.47;1.95;;;;;;;;;;5072783;28;20028;-69
2023/07/21 05:52:28;;;;;;;3.22;2.13;;;;;;;;;;5072867;28;20094;-69
2023/07/21 05:54:54;;;;;;;5.20;2.63;;;;;;;;;;5072647;28;20544;-69
2023/07/21 05:57:19;;;;;;;3.17;1.92;;;;;;;;;;5072968;28;20033;-69
2023/07/21 05:59:45;;;;;;;4.20;2.15;;;;;;;;;;5071550;28;20027;-69
2023/07/21 06:02:11;;;;;;;2.97;2.28;;;;;;;;;;5073006;28;20489;-69
2023/07/21 06:04:36;;;;;;;3.80;2.58;;;;;;;;;;5072642;28;20389;-69
2023/07/21 06:07:02;;;;;;;3.63;2.60;;;;;;;;;;5072928;28;20016;-69
2023/07/21 06:09:27;;;;;;;2.97;2.25;;;;;;;;;;5072830;28;20028;-69
2023/07/21 06:11:53;;;;;;;3.45;2.53;;;;;;;;;;5071278;28;20025;-69
2023/07/21 06:14:18;;;;;;;3.92;2.38;;;;;;;;;;5072767;28;20389;-69
2023/07/21 06:16:43;;;;;;;4.97;2.28;;;;;;;;;;5072981;28;20017;-69
2023/07/21 06:19:09;;;;;;;5.13;2.42;;;;;;;;;;5072668;28;20021;-69
2023/07/21 06:21:34;;;;;;;4.60;2.30;;;;;;;;;;5072007;28;20036;-69
2023/07/21 06:23:59;;;;;;;4.72;2.63;;;;;;;;;;5072600;28;20447;-69
2023/07/21 06:26:25;;;;;;;5.55;2.58;;;;;;;;;;5073221;28;20048;-69
2023/07/21 06:28:50;;;;;;;4.25;2.00;;;;;;;;;;5072965;28;20074;-69
2023/07/21 06:31:16;;;;;;;4.05;2.33;;;;;;;;;;5072721;28;20032;-69
2023/07/21 06:33:41;;;;;;;3.13;2.47;;;;;;;;;;5071890;28;20067;-70
2023/07/21 06:36:06;;;;;;;8.40;2.28;;;;;;;;;;5072263;28;20025;-70
2023/07/21 06:38:33;;;;;;;3.17;2.33;;;;;;;;;;5072800;28;20474;-70
2023/07/21 06:40:58;;;;;;;4.75;2.20;;;;;;;;;;5072536;28;20105;-69
2023/07/21 06:43:24;;;;;;;3.60;2.47;;;;;;;;;;5071236;28;20051;-70
2023/07/21 06:45:49;;;;;;;4.22;2.47;;;;;;;;;;5072704;28;20107;-70
2023/07/21 06:48:14;;;;;;;4.05;1.90;;;;;;;;;;5071726;28;20366;-70
2023/07/21 06:50:40;;;;;;;3.25;2.28;;;;;;;;;;5072631;28;20107;-69
2023/07/21 06:53:06;;;;;;;4.70;2.72;;;;;;;;;;5072456;28;20032;-69
2023/07/21 06:55:34;;;;;;;6.10;2.38;;;;;;;;;;5072465;28;20029;-69
2023/07/21 06:58:00;;;;;;;3.97;2.67;;;;;;;;;;5072244;28;20102;-70
2023/07/21 07:00:26;;;;;;;5.57;2.40;;;;;;;;;;5071983;28;20464;-69
2023/07/21 07:02:51;;;;;;;3.17;1.90;;;;;;;;;;5072533;28;20020;-69
2023/07/21 07:05:17;;;;;;;6.85;2.60;;;;;;;;;;5073356;28;20370;-69
2023/07/21 07:07:42;;;;;;;6.40;2.78;;;;;;;;;;5074445;28;20115;-70
2023/07/21 07:10:08;;;;;;;3.55;2.40;;;;;;;;;;5075537;28;20046;-70
2023/07/21 07:12:33;;;;;;;7.03;2.20;;;;;;;;;;5074822;28;20028;-69
2023/07/21 07:14:59;;;;;;;4.53;2.50;;;;;;;;;;5076596;28;20036;-69
2023/07/21 07:17:24;;;;;;;4.25;2.92;;;;;;;;;;5075108;28;20090;-70
2023/07/21 07:19:49;;;;;;;11.15;2.67;;;;;;;;;;5075172;28;20051;-70
2023/07/21 07:22:15;;;;;;;5.82;2.65;;;;;;;;;;5075748;28;20020;-69
2023/07/21 07:24:40;;;;;;;4.25;2.60;;;;;;;;;;5076124;28;20021;-69
2023/07/21 07:27:06;;;;;;;3.67;2.33;;;;;;;;;;5075985;28;20424;-69
2023/07/21 07:29:31;;;;;;;3.72;2.22;;;;;;;;;;5075164;28;20462;-69
2023/07/21 07:31:56;;;;;;;3.00;2.10;;;;;;;;;;5074683;28;20487;-69
2023/07/21 07:34:21;;;;;;;3.28;2.13;;;;;;;;;;5075306;28;20127;-70
2023/07/21 07:36:48;;;;;;;4.10;2.35;;;;;;;;;;5075709;28;20492;-70
2023/07/21 07:39:14;;;;;;;4.43;2.33;;;;;;;;;;5075022;28;20043;-69
2023/07/21 07:41:39;;;;;;;2.80;2.22;;;;;;;;;;5075452;28;20421;-69
2023/07/21 07:44:08;;;;;;;4.10;2.60;;;;;;;;;;5075519;28;20031;-70
2023/07/21 07:46:33;;;;;;;3.80;2.17;;;;;;;;;;5075345;28;20031;-69
2023/07/21 07:48:59;;;;;;;4.65;2.45;;;;;;;;;;5074376;28;20028;-69
2023/07/21 07:51:24;;;;;;;3.78;2.63;;;;;;;;;;5075877;28;20021;-69
2023/07/21 07:53:50;;;;;;;6.32;2.70;;;;;;;;;;5075371;28;20036;-69
2023/07/21 07:56:15;;;;;;;3.67;2.28;;;;;;;;;;5075044;28;20103;-69
2023/07/21 07:58:41;;;;;;;3.88;2.53;;;;;;;;;;5075637;28;20017;-69
2023/07/21 08:01:06;;;;;;;5.47;2.58;;;;;;;;;;5075617;28;20469;-69
2023/07/21 08:03:31;;;;;;;3.00;1.95;;;;;;;;;;5075143;28;20020;-69
2023/07/21 08:05:58;;;;;;;6.18;2.10;;;;;;;;;;5075206;28;20032;-69
2023/07/21 08:08:23;;;;;;;3.75;2.10;;;;;;;;;;5074493;28;20063;-69
2023/07/21 08:10:49;;;;;;;2.90;1.77;;;;;;;;;;5075298;28;20020;-69
2023/07/21 08:13:14;;;;;;;3.47;1.80;;;;;;;;;;5075219;28;20473;-69
2023/07/21 08:15:40;;;;;;;2.97;1.80;;;;;;;;;;5074688;28;20031;-69
2023/07/21 08:18:06;;;;;;;2.70;1.80;;;;;;;;;;5072910;28;20024;-69
2023/07/21 08:20:32;;;;;;;2.53;1.90;;;;;;;;;;5074737;28;20334;-69
2023/07/21 08:22:57;;;;;;;4.00;2.20;;;;;;;;;;5075077;28;20025;-69
2023/07/21 08:25:22;;;;;;;4.50;2.10;;;;;;;;;;5074948;28;20024;-69
2023/07/21 08:27:47;;;;;;;3.88;1.77;;;;;;;;;;5075382;28;20035;-69
2023/07/21 08:30:14;;;;;;;2.50;2.00;;;;;;;;;;5075863;28;20017;-69
2023/07/21 08:32:40;;;;;;;3.40;2.03;;;;;;;;;;5075389;28;20024;-69
2023/07/21 08:35:07;;;;;;;4.68;2.28;;;;;;;;;;5075851;28;20131;-69
2023/07/21 08:37:32;;;;;;;2.72;1.80;;;;;;;;;;5074264;28;20024;-69
2023/07/21 08:39:58;;;;;;;3.90;2.05;;;;;;;;;;5075302;28;20032;-69
2023/07/21 08:42:27;;;;;;;4.30;1.92;;;;;;;;;;5076255;28;20048;-69
2023/07/21 08:44:55;;;;;;;2.95;2.33;;;;;;;;;;5074736;28;20021;-69
2023/07/21 08:47:24;;;;;;;4.10;1.80;;;;;;;;;;5073948;28;20039;-69
2023/07/21 08:49:49;;;;;;;2.65;1.77;;;;;;;;;;5076508;28;20047;-69
2023/07/21 08:52:15;;;;;;;3.17;1.85;;;;;;;;;;5075668;28;20027;-69
2023/07/21 08:54:40;;;;;;;3.95;1.92;;;;;;;;;;5075666;28;20032;-69
2023/07/21 08:57:05;;;;;;;2.65;2.22;;;;;;;;;;5075321;28;20025;-69
2023/07/21 08:59:31;;;;;;;3.00;2.08;;;;;;;;;;5075935;28;20028;-69
2023/07/21 09:01:56;;;;;;;4.50;2.20;;;;;;;;;;5076079;28;20020;-69
2023/07/21 09:04:23;;;;;;;6.60;2.85;;;;;;;;;;5075191;28;20109;-69
2023/07/21 09:06:57;;;;;;;3.80;1.63;;;;;;;;;;5074575;28;20032;-70
2023/07/21 09:09:25;;;;;;;4.70;2.35;;;;;;;;;;5074756;28;20112;-69
2023/07/21 09:11:59;;;;;;;4.57;2.20;;;;;;;;;;5075935;28;20395;-69
2023/07/21 09:14:40;;;;;;;3.65;2.15;;;;;;;;;;5075274;28;20389;-69
2023/07/21 09:17:07;;;;;;;5.82;2.22;;;;;;;;;;5074047;28;20028;-69
2023/07/21 09:19:45;;;;;;;3.33;1.92;;;;;;;;;;5076087;28;20020;-69
2023/07/21 09:22:11;;;;;;;3.95;1.90;;;;;;;;;;5076008;28;20413;-69
2023/07/21 09:24:47;;;;;;;5.03;2.80;;;;;;;;;;5074591;28;20031;-69
2023/07/21 09:27:14;;;;;;;4.18;2.10;;;;;;;;;;5074375;28;20047;-69
2023/07/21 09:29:40;;;;;;;4.20;2.08;;;;;;;;;;5074488;28;20104;-69
2023/07/21 09:32:26;;;;;;;4.25;2.22;;;;;;;;;;5074586;28;20044;-69
2023/07/21 09:34:56;;;;;;;4.95;2.40;;;;;;;;;;5074859;28;20119;-69
2023/07/21 09:37:23;;;;;;;5.70;2.67;;;;;;;;;;5074286;28;20028;-69
2023/07/21 09:40:00;;;;;;;5.45;1.85;;;;;;;;;;5074596;28;20033;-69
2023/07/21 09:42:28;;;;;;;3.03;1.92;;;;;;;;;;5075153;28;20394;-69
2023/07/21 09:44:54;;;;;;;3.30;1.67;;;;;;;;;;5075108;28;20526;-69
2023/07/21 09:47:20;;;;;;;3.78;2.05;;;;;;;;;;5075339;28;20028;-69
2023/07/21 09:49:48;;;;;;;5.95;2.55;;;;;;;;;;5073962;28;20048;-69
2023/07/21 09:52:15;;;;;;;4.13;1.67;;;;;;;;;;5074782;28;20431;-69
2023/07/21 09:54:44;;;;;;;4.10;2.47;;;;;;;;;;5075116;28;20024;-69
2023/07/21 09:57:11;;;;;;;6.47;2.22;;;;;;;;;;5074623;28;20162;-69
2023/07/21 09:59:37;;;;;;;3.60;1.65;;;;;;;;;;5074510;28;20523;-69
2023/07/21 10:02:05;;;;;;;4.15;1.77;;;;;;;;;;5075182;28;20024;-69
2023/07/21 10:04:31;;;;;;;3.67;2.10;;;;;;;;;;5072926;28;20059;-69
2023/07/21 10:06:58;;;;;;;4.25;1.73;;;;;;;;;;5073883;28;20051;-69
2023/07/21 10:09:24;;;;;;;6.20;2.35;;;;;;;;;;5071869;28;20024;-69
2023/07/21 10:11:49;;;;;;;5.97;2.22;;;;;;;;;;5073482;28;20099;-69
2023/07/21 10:14:30;;;;;;;9.85;2.72;;;;;;;;;;5073294;28;20016;-69
2023/07/21 10:16:56;;;;;;;4.72;2.20;;;;;;;;;;5072241;28;20032;-69
2023/07/21 10:19:22;;;;;;;6.30;2.60;;;;;;;;;;5073393;28;20425;-69
2023/07/21 10:21:53;;;;;;;5.07;2.45;;;;;;;;;;5074163;28;20393;-69
2023/07/21 10:24:26;;;;;;;3.40;2.05;;;;;;;;;;5074159;28;20043;-69
2023/07/21 10:27:01;;;;;;;4.80;2.17;;;;;;;;;;5072647;28;20046;-69
2023/07/21 10:29:26;;;;;;;3.75;2.30;;;;;;;;;;5073562;28;20024;-69
2023/07/21 10:31:57;;;;;;;6.32;2.10;;;;;;;;;;5073155;28;20028;-69
2023/07/21 10:34:26;;;;;;;5.40;3.38;;;;;;;;;;5072539;28;20021;-69
2023/07/21 10:36:52;;;;;;;3.88;2.40;;;;;;;;;;5073441;28;20023;-69
2023/07/21 10:39:22;;;;;;;5.22;1.98;;;;;;;;;;5073951;28;20020;-69
2023/07/21 10:41:50;;;;;;;3.70;2.13;;;;;;;;;;5077739;28;20048;-69
2023/07/21 10:44:15;;;;;;;5.97;2.22;;;;;;;;;;5076257;28;20078;-69
2023/07/21 10:46:42;;;;;;;5.32;2.10;;;;;;;;;;5076442;28;20029;-69
2023/07/21 10:49:11;;;;;;;4.68;2.17;;;;;;;;;;5077184;28;20059;-69
2023/07/21 10:51:49;;;;;;;3.50;1.95;;;;;;;;;;5077928;28;20108;-69
2023/07/21 10:54:15;;;;;;;3.67;1.85;;;;;;;;;;5076686;28;20027;-69
2023/07/21 10:56:40;;;;;;;6.30;2.33;;;;;;;;;;5075779;28;20024;-70
2023/07/21 10:59:06;;;;;;;4.72;2.10;;;;;;;;;;5077344;28;20023;-70
2023/07/21 11:01:31;;;;;;;4.13;2.13;;;;;;;;;;5076127;28;20098;-69
2023/07/21 11:03:58;;;;;;;5.75;2.65;;;;;;;;;;5076258;28;20531;-69
2023/07/21 11:06:24;;;;;;;2.92;1.70;;;;;;;;;;5076232;28;20081;-69
2023/07/21 11:08:49;;;;;;;4.63;2.30;;;;;;;;;;5076108;28;20032;-70
2023/07/21 11:11:15;;;;;;;5.32;2.22;;;;;;;;;;5075882;28;20504;-70
2023/07/21 11:13:40;;;;;;;6.60;2.10;;;;;;;;;;5076213;28;20021;-70
2023/07/21 11:16:05;;;;;;;3.92;1.88;;;;;;;;;;5076902;28;20028;-70
2023/07/21 11:18:31;;;;;;;5.53;1.80;;;;;;;;;;5075399;28;20538;-69
2023/07/21 11:20:56;;;;;;;4.90;2.15;;;;;;;;;;5076743;28;20063;-70
2023/07/21 11:23:22;;;;;;;5.63;2.17;;;;;;;;;;5076040;28;20145;-69
2023/07/21 11:26:10;;;;;;;4.50;2.03;;;;;;;;;;5076148;28;20549;-70
2023/07/21 11:28:37;;;;;;;4.22;2.05;;;;;;;;;;5075923;28;20036;-70
2023/07/21 11:31:03;;;;;;;3.78;2.00;;;;;;;;;;5074772;28;20028;-70
2023/07/21 11:33:46;;;;;;;4.90;1.75;;;;;;;;;;5074052;28;20028;-70
2023/07/21 11:36:31;;;;;;;4.28;2.40;;;;;;;;;;5074928;28;20028;-70
2023/07/21 11:39:04;;;;;;;3.60;2.20;;;;;;;;;;5075956;28;20024;-70
2023/07/21 11:41:39;;;;;;;4.13;1.90;;;;;;;;;;5075738;28;20029;-70
2023/07/21 11:44:08;;;;;;;4.32;1.85;;;;;;;;;;5075662;28;20111;-70
2023/07/21 11:46:33;;;;;;;4.38;1.73;;;;;;;;;;5075938;28;20040;-70
2023/07/21 11:49:00;;;;;;;3.03;1.60;;;;;;;;;;5073787;28;20024;-70
2023/07/21 11:51:26;;;;;;;3.42;1.80;;;;;;;;;;5074192;28;20562;-70
2023/07/21 11:53:51;;;;;;;4.13;1.83;;;;;;;;;;5074458;28;20025;-70
2023/07/21 11:56:16;;;;;;;2.85;1.90;;;;;;;;;;5075738;28;20473;-70
2023/07/21 11:58:42;;;;;;;4.00;1.85;;;;;;;;;;5075815;28;20537;-70
2023/07/21 12:01:07;;;;;;;3.20;2.10;;;;;;;;;;5075724;28;20060;-70
2023/07/21 12:03:36;;;;;;;5.15;2.17;;;;;;;;;;5073714;28;20042;-70
2023/07/21 12:06:03;;;;;;;3.83;1.75;;;;;;;;;;5075389;28;20024;-70
2023/07/21 12:08:29;;;;;;;2.53;1.60;;;;;;;;;;5075018;28;20172;-70
2023/07/21 12:10:55;;;;;;;4.82;1.95;;;;;;;;;;5058471;28;20035;-70
2023/07/21 12:13:20;;;;;;;5.65;2.00;;;;;;;;;;5075529;28;20025;-70
2023/07/21 12:15:46;;;;;;;3.42;1.90;;;;;;;;;;5076180;28;20500;-70
2023/07/21 12:18:12;;;;;;;4.30;2.05;;;;;;;;;;5075645;28;20029;-69
2023/07/21 12:20:37;;;;;;;6.40;1.83;;;;;;;;;;5075804;28;20036;-69
2023/07/21 12:23:02;;;;;;;2.80;1.65;;;;;;;;;;5076191;28;20021;-70
2023/07/21 12:25:27;;;;;;;3.97;1.90;;;;;;;;;;5075194;28;20033;-70
2023/07/21 12:27:53;;;;;;;4.72;2.30;;;;;;;;;;5075858;28;20025;-69
2023/07/21 12:30:18;;;;;;;2.72;1.60;;;;;;;;;;5076005;28;20027;-69
2023/07/21 12:32:43;;;;;;;5.38;1.88;;;;;;;;;;5076045;28;20039;-69
2023/07/21 12:35:09;;;;;;;4.22;1.98;;;;;;;;;;5075417;28;20020;-69
2023/07/21 12:37:38;;;;;;;4.10;2.35;;;;;;;;;;5075943;28;20035;-70
2023/07/21 12:40:06;;;;;;;5.15;2.45;;;;;;;;;;5076133;28;20032;-70
2023/07/21 12:42:31;;;;;;;5.45;1.98;;;;;;;;;;5076012;28;20366;-70
2023/07/21 12:44:56;;;;;;;5.93;2.25;;;;;;;;;;5077201;28;20017;-70
2023/07/21 12:47:22;;;;;;;4.63;2.10;;;;;;;;;;5077172;28;20032;-71
2023/07/21 12:49:47;;;;;;;3.17;2.30;;;;;;;;;;5075913;28;20016;-70
2023/07/21 12:52:12;;;;;;;3.83;1.98;;;;;;;;;;5077346;28;20024;-70
2023/07/21 12:54:38;;;;;;;4.78;2.20;;;;;;;;;;5077481;28;20473;-70
2023/07/21 12:57:03;;;;;;;5.75;2.53;;;;;;;;;;5077266;28;20392;-70
2023/07/21 12:59:29;;;;;;;6.30;2.35;;;;;;;;;;5077356;28;20060;-70
2023/07/21 13:01:54;;;;;;;5.63;2.40;;;;;;;;;;5076390;28;20047;-70
2023/07/21 13:04:20;;;;;;;6.40;2.22;;;;;;;;;;5076397;28;20028;-70
2023/07/21 13:06:45;;;;;;;3.15;1.98;;;;;;;;;;5077089;28;20024;-70
2023/07/21 13:09:10;;;;;;;6.93;2.28;;;;;;;;;;5068865;28;20064;-69
2023/07/21 13:11:35;;;;;;;5.22;2.25;;;;;;;;;;5062802;28;20036;-69
2023/07/21 13:14:01;;;;;;;3.97;1.88;;;;;;;;;;5058957;28;20040;-69
2023/07/21 13:16:26;;;;;;;6.78;2.05;;;;;;;;;;5064761;28;20060;-69
2023/07/21 13:18:51;;;;;;;4.47;2.60;;;;;;;;;;5063106;28;20032;-70
2023/07/21 13:21:17;;;;;;;3.90;2.20;;;;;;;;;;5064747;28;20044;-69
2023/07/21 13:23:42;;;;;;;6.47;2.05;;;;;;;;;;5069527;28;20035;-70
2023/07/21 13:26:07;;;;;;;4.22;2.40;;;;;;;;;;5063598;28;20166;-70
2023/07/21 13:28:32;;;;;;;3.97;2.15;;;;;;;;;;5059699;28;20028;-69
2023/07/21 13:30:58;;;;;;;6.03;2.50;;;;;;;;;;5059892;28;20029;-69
2023/07/21 13:33:23;;;;;;;5.15;2.05;;;;;;;;;;5058498;28;20020;-69
2023/07/21 13:35:49;;;;;;;4.25;2.25;;;;;;;;;;5062518;28;20405;-69
2023/07/21 13:38:14;;;;;;;6.05;2.60;;;;;;;;;;5061753;28;20474;-69
2023/07/21 13:40:40;;;;;;;5.05;2.63;;;;;;;;;;5062732;28;20112;-70
2023/07/21 13:43:05;;;;;;;5.50;2.60;;;;;;;;;;5061123;28;20033;-69
2023/07/21 13:45:30;;;;;;;3.30;2.33;;;;;;;;;;5064448;28;20027;-69
2023/07/21 13:47:55;;;;;;;6.10;2.63;;;;;;;;;;5063263;28;20105;-69
2023/07/21 13:50:21;;;;;;;4.40;2.53;;;;;;;;;;5062247;28;20017;-70
2023/07/21 13:52:46;;;;;;;6.57;2.25;;;;;;;;;;5075118;28;20020;-70
2023/07/21 13:55:11;;;;;;;3.63;2.00;;;;;;;;;;5075250;28;20477;-70
2023/07/21 13:57:37;;;;;;;3.90;2.22;;;;;;;;;;5075542;28;20042;-69
2023/07/21 14:00:02;;;;;;;5.85;2.53;;;;;;;;;;5074367;28;20023;-70
2023/07/21 14:02:28;;;;;;;5.43;2.13;;;;;;;;;;5074949;28;20048;-69
2023/07/21 14:04:53;;;;;;;5.50;2.63;;;;;;;;;;5074788;28;20013;-69
2023/07/21 14:07:18;;;;;;;5.20;2.30;;;;;;;;;;5074746;28;20520;-70
2023/07/21 14:09:45;;;;;;;6.65;2.30;;;;;;;;;;5074779;28;20056;-70
2023/07/21 14:12:10;;;;;;;4.50;2.30;;;;;;;;;;5074710;28;20111;-69
2023/07/21 14:14:35;;;;;;;4.68;2.40;;;;;;;;;;5074466;28;20095;-69
2023/07/21 14:17:01;;;;;;;5.28;2.67;;;;;;;;;;5074523;28;20033;-70
2023/07/21 14:19:26;;;;;;;5.25;2.55;;;;;;;;;;5073830;28;20031;-69
2023/07/21 14:21:51;;;;;;;7.00;2.83;;;;;;;;;;5074371;28;20029;-69
2023/07/21 14:24:17;;;;;;;4.43;2.47;;;;;;;;;;5074178;28;20036;-70
2023/07/21 14:26:42;;;;;;;4.65;2.30;;;;;;;;;;5075113;28;20035;-70
2023/07/21 14:29:07;;;;;;;5.28;2.95;;;;;;;;;;5073993;28;20021;-70
2023/07/21 14:31:35;;;;;;;3.97;2.38;;;;;;;;;;5066636;28;20025;-69
2023/07/21 14:34:02;;;;;;;4.65;2.20;;;;;;;;;;5069085;28;20040;-70
2023/07/21 14:36:27;;;;;;;4.03;2.25;;;;;;;;;;5067169;28;20024;-70
2023/07/21 14:38:53;;;;;;;3.53;2.42;;;;;;;;;;5073633;28;20025;-70